createdAt,value
2018-03-20T00:02:21.250Z,9.47
2018-03-20T00:04:48.775Z,9.30
2018-03-20T00:07:17.759Z,11.40
2018-03-20T00:09:45.714Z,8.73
2018-03-20T00:12:13.241Z,8.73
2018-03-20T00:14:40.974Z,10.00
2018-03-20T00:17:09.929Z,7.67
2018-03-20T00:19:37.476Z,10.23
2018-03-20T00:22:05.920Z,7.97
2018-03-20T00:24:34.044Z,10.20
2018-03-20T00:27:01.574Z,9.17
2018-03-20T00:29:29.080Z,8.20
2018-03-20T00:31:56.609Z,10.53
2018-03-20T00:34:24.113Z,9.50
2018-03-20T00:36:52.532Z,10.80
2018-03-20T00:39:20.116Z,12.10
2018-03-20T00:41:47.647Z,10.93
2018-03-20T00:44:15.621Z,8.37
2018-03-20T00:46:43.138Z,9.33
2018-03-20T00:49:11.435Z,10.13
2018-03-20T00:51:38.943Z,8.60
2018-03-20T00:54:06.638Z,9.37
2018-03-20T00:56:38.446Z,9.07
2018-03-20T00:59:05.985Z,8.50
2018-03-20T01:01:33.494Z,8.83
2018-03-20T01:04:01.490Z,6.77
2018-03-20T01:06:29.908Z,7.63
2018-03-20T01:08:57.426Z,9.70
2018-03-20T01:11:25.780Z,7.90
2018-03-20T01:13:54.028Z,9.57
2018-03-20T01:16:21.550Z,8.07
2018-03-20T01:18:50.470Z,10.20
2018-03-20T01:21:21.820Z,8.67
2018-03-20T01:23:49.312Z,8.63
2018-03-20T01:26:16.850Z,8.60
2018-03-20T01:28:44.369Z,8.50
2018-03-20T01:31:16.629Z,7.03
2018-03-20T01:33:44.766Z,7.73
2018-03-20T01:36:12.370Z,7.57
2018-03-20T01:38:40.659Z,9.47
2018-03-20T01:41:08.197Z,11.10
2018-03-20T01:43:36.488Z,6.77
2018-03-20T01:46:04.761Z,7.50
2018-03-20T01:48:33.148Z,6.30
2018-03-20T01:51:00.784Z,8.97
2018-03-20T01:53:28.390Z,7.03
2018-03-20T01:55:59.807Z,7.27
2018-03-20T01:58:28.099Z,10.40
2018-03-20T02:00:55.636Z,8.80
2018-03-20T02:03:23.917Z,6.63
2018-03-20T02:05:52.470Z,7.03
2018-03-20T02:08:19.982Z,8.30
2018-03-20T02:10:47.514Z,8.93
2018-03-20T02:13:15.822Z,9.47
2018-03-20T02:15:43.467Z,7.60
2018-03-20T02:18:11.769Z,7.57
2018-03-20T02:20:39.282Z,6.73
2018-03-20T02:23:06.782Z,7.97
2018-03-20T02:25:34.298Z,7.50
2018-03-20T02:28:01.808Z,8.23
2018-03-20T02:30:29.335Z,7.37
2018-03-20T02:32:57.651Z,9.27
2018-03-20T02:35:25.187Z,10.33
2018-03-20T02:37:52.733Z,9.10
2018-03-20T02:40:21.724Z,9.10
2018-03-20T02:42:50.033Z,8.67
2018-03-20T02:45:17.544Z,8.70
2018-03-20T02:47:45.060Z,10.33
2018-03-20T02:50:17.041Z,10.13
2018-03-20T02:52:44.589Z,10.40
2018-03-20T02:55:12.110Z,10.03
2018-03-20T02:57:44.262Z,10.97
2018-03-20T03:00:13.771Z,10.70
2018-03-20T03:02:42.046Z,11.37
2018-03-20T03:05:10.421Z,10.63
2018-03-20T03:07:38.982Z,10.00
2018-03-20T03:10:06.527Z,10.37
2018-03-20T03:12:34.815Z,9.67
2018-03-20T03:15:02.319Z,8.70
2018-03-20T03:17:30.618Z,11.27
2018-03-20T03:19:58.126Z,11.77
2018-03-20T03:22:25.679Z,11.60
2018-03-20T03:24:53.511Z,12.60
2018-03-20T03:27:21.043Z,9.50
2018-03-20T03:29:49.349Z,9.43
2018-03-20T03:32:17.729Z,13.43
2018-03-20T03:34:45.249Z,10.87
2018-03-20T03:37:14.111Z,11.47
2018-03-20T03:39:41.643Z,9.53
2018-03-20T03:42:09.710Z,9.13
2018-03-20T03:44:37.232Z,10.90
2018-03-20T03:47:05.520Z,10.73
2018-03-20T03:49:33.826Z,11.60
2018-03-20T03:52:01.333Z,12.67
2018-03-20T03:54:29.614Z,15.37
2018-03-20T03:56:57.925Z,15.37
2018-03-20T03:59:26.225Z,18.77
2018-03-20T04:01:54.717Z,17.93
2018-03-20T04:04:22.229Z,18.00
2018-03-20T04:06:49.756Z,18.90
2018-03-20T04:09:17.265Z,22.53
2018-03-20T04:11:45.554Z,17.43
2018-03-20T04:14:13.085Z,20.77
2018-03-20T04:16:40.597Z,17.30
2018-03-20T04:19:08.902Z,21.83
2018-03-20T04:21:37.211Z,18.33
2018-03-20T04:24:05.480Z,15.57
2018-03-20T04:26:33.957Z,16.90
2018-03-20T04:29:01.474Z,16.53
2018-03-20T04:31:28.992Z,17.40
2018-03-20T04:33:56.512Z,16.47
2018-03-20T04:36:29.310Z,22.50
2018-03-20T04:39:05.086Z,19.13
2018-03-20T04:41:32.621Z,18.30
2018-03-20T04:44:00.908Z,19.30
2018-03-20T04:46:28.438Z,19.97
2018-03-20T04:48:56.727Z,26.27
2018-03-20T04:51:25.005Z,24.20
2018-03-20T04:53:53.297Z,25.00
2018-03-20T04:56:20.935Z,28.67
2018-03-20T04:58:49.696Z,26.27
2018-03-20T05:01:17.975Z,22.27
2018-03-20T05:03:45.500Z,27.60
2018-03-20T05:06:13.067Z,30.03
2018-03-20T05:08:40.642Z,27.93
2018-03-20T05:11:08.304Z,23.53
2018-03-20T05:26:36.723Z,19.57
2018-03-20T05:29:05.010Z,27.13
2018-03-20T05:31:36.564Z,24.30
2018-03-20T05:34:08.604Z,27.87
2018-03-20T05:36:36.978Z,26.20
2018-03-20T05:39:04.740Z,26.43
2018-03-20T05:41:32.280Z,22.57
2018-03-20T05:43:59.798Z,23.30
2018-03-20T05:46:33.219Z,25.53
2018-03-20T05:49:03.556Z,25.77
2018-03-20T05:51:37.418Z,25.53
2018-03-20T05:54:06.457Z,23.43
2018-03-20T05:56:33.979Z,21.87
2018-03-20T05:59:01.498Z,29.67
2018-03-20T06:01:29.585Z,28.67
2018-03-20T06:03:57.572Z,26.03
2018-03-20T06:06:26.194Z,29.63
2018-03-20T06:08:58.224Z,27.83
2018-03-20T06:11:26.910Z,34.43
2018-03-20T06:13:54.464Z,34.33
2018-03-20T06:16:22.850Z,31.57
2018-03-20T06:18:51.141Z,36.77
2018-03-20T06:21:19.312Z,38.73
2018-03-20T06:23:47.362Z,35.73
2018-03-20T06:26:15.659Z,33.80
2018-03-20T06:28:43.171Z,35.33
2018-03-20T06:31:11.186Z,32.67
2018-03-20T06:33:38.726Z,42.30
2018-03-20T06:36:07.006Z,38.40
2018-03-20T06:38:35.316Z,36.13
2018-03-20T06:41:02.832Z,32.20
2018-03-20T06:43:30.793Z,40.37
2018-03-20T06:45:59.743Z,35.27
2018-03-20T06:48:31.253Z,41.33
2018-03-20T06:50:59.578Z,41.10
2018-03-20T06:53:31.258Z,32.17
2018-03-20T06:55:59.576Z,41.13
2018-03-20T06:58:36.440Z,42.10
2018-03-20T07:01:08.016Z,42.53
2018-03-20T07:03:35.529Z,48.20
2018-03-20T07:06:03.050Z,46.83
2018-03-20T07:08:34.349Z,41.93
2018-03-20T07:11:01.873Z,40.30
2018-03-20T07:13:29.397Z,39.27
2018-03-20T07:16:02.202Z,43.43
2018-03-20T07:18:29.705Z,37.07
2018-03-20T07:20:57.305Z,36.27
2018-03-20T07:23:24.815Z,32.77
2018-03-20T07:25:52.320Z,26.30
2018-03-20T07:28:20.655Z,25.87
2018-03-20T07:30:48.194Z,26.40
2018-03-20T07:33:15.720Z,29.03
2018-03-20T07:35:43.654Z,22.13
2018-03-20T07:38:11.204Z,22.33
2018-03-20T07:40:39.430Z,25.80
2018-03-20T07:43:07.897Z,23.13
2018-03-20T07:45:36.180Z,22.67
2018-03-20T07:48:04.457Z,16.63
2018-03-20T07:50:31.982Z,16.07
2018-03-20T07:52:59.503Z,19.87
2018-03-20T07:55:28.738Z,22.07
2018-03-20T07:57:56.262Z,18.03
2018-03-20T08:00:23.785Z,16.87
2018-03-20T08:02:52.408Z,15.87
2018-03-20T08:05:24.789Z,14.13
2018-03-20T08:07:52.372Z,14.77
2018-03-20T08:10:19.877Z,15.07
2018-03-20T08:12:47.494Z,15.03
2018-03-20T08:15:15.070Z,12.20
2018-03-20T08:17:43.930Z,13.40
2018-03-20T08:20:11.453Z,11.47
2018-03-20T08:22:38.987Z,10.63
2018-03-20T08:25:11.513Z,11.20
2018-03-20T08:27:39.019Z,11.43
2018-03-20T08:30:07.298Z,9.33
2018-03-20T08:32:35.569Z,8.93
2018-03-20T08:35:03.869Z,8.50
2018-03-20T08:37:32.879Z,6.33
2018-03-20T08:40:00.389Z,5.93
2018-03-20T08:42:27.918Z,5.20
2018-03-20T08:44:55.437Z,6.23
2018-03-20T08:47:22.949Z,4.73
2018-03-20T08:49:50.975Z,6.30
2018-03-20T08:52:18.516Z,5.30
2018-03-20T08:54:46.795Z,4.53
2018-03-20T08:57:19.030Z,5.40
2018-03-20T08:59:50.518Z,4.70
2018-03-20T09:02:23.578Z,5.03
2018-03-20T09:04:51.095Z,3.43
2018-03-20T09:07:18.597Z,5.27
2018-03-20T09:09:46.143Z,4.53
2018-03-20T09:12:13.927Z,3.60
2018-03-20T09:14:41.496Z,5.37
2018-03-20T09:17:09.289Z,3.63
2018-03-20T09:19:36.874Z,3.57
2018-03-20T09:22:04.385Z,3.30
2018-03-20T09:24:34.722Z,4.80
2018-03-20T09:27:02.985Z,3.47
2018-03-20T09:29:31.740Z,3.77
2018-03-20T09:31:59.974Z,4.43
2018-03-20T09:39:50.743Z,2.67
2018-03-20T09:42:19.392Z,4.47
2018-03-20T09:44:49.259Z,4.57
2018-03-20T09:47:21.600Z,3.70
2018-03-20T09:49:49.109Z,3.83
2018-03-20T09:52:21.486Z,3.13
2018-03-20T09:54:49.802Z,3.50
2018-03-20T09:57:18.368Z,2.67
2018-03-20T09:59:47.255Z,3.17
2018-03-20T10:02:15.522Z,3.50
2018-03-20T10:04:43.838Z,2.27
2018-03-20T10:07:12.104Z,2.73
2018-03-20T10:09:39.632Z,2.37
2018-03-20T10:12:07.173Z,2.93
2018-03-20T10:14:36.363Z,2.37
2018-03-20T10:17:03.908Z,3.43
2018-03-20T10:22:27.166Z,2.70
2018-03-20T10:24:54.681Z,2.47
2018-03-20T10:27:22.236Z,2.00
2018-03-20T10:29:49.773Z,2.03
2018-03-20T10:32:17.340Z,4.27
2018-03-20T10:34:44.869Z,4.17
2018-03-20T10:37:12.396Z,3.57
2018-03-20T10:39:49.429Z,2.17
2018-03-20T10:42:17.485Z,3.00
2018-03-20T10:57:45.083Z,4.20
2018-03-20T11:00:12.610Z,2.50
2018-03-20T11:02:45.800Z,1.80
2018-03-20T11:05:13.320Z,4.40
2018-03-20T11:07:41.609Z,3.80
2018-03-20T11:10:09.137Z,3.67
2018-03-20T11:12:36.657Z,4.33
2018-03-20T11:15:04.172Z,4.50
2018-03-20T11:17:32.464Z,4.33
2018-03-20T11:20:00.673Z,3.07
2018-03-20T11:22:29.131Z,3.63
2018-03-20T11:24:56.660Z,3.23
2018-03-20T11:27:28.945Z,3.53
2018-03-20T11:29:56.517Z,2.43
2018-03-20T11:32:24.802Z,3.60
2018-03-20T11:34:52.577Z,1.90
2018-03-20T11:37:20.101Z,3.37
2018-03-20T11:39:48.453Z,3.77
2018-03-20T11:42:16.076Z,2.77
2018-03-20T11:44:46.609Z,2.30
2018-03-20T11:47:14.127Z,2.17
2018-03-20T11:49:42.445Z,2.63
2018-03-20T11:52:09.960Z,3.73
2018-03-20T11:54:38.424Z,3.90
2018-03-20T11:57:07.577Z,2.07
2018-03-20T11:59:35.117Z,2.17
2018-03-20T12:02:02.626Z,2.93
2018-03-20T12:04:34.107Z,2.75
2018-03-20T12:07:02.452Z,4.70
2018-03-20T12:09:50.648Z,2.20
2018-03-20T12:12:18.171Z,5.45
2018-03-20T12:14:45.751Z,2.90
2018-03-20T12:17:14.046Z,3.53
2018-03-20T12:19:45.451Z,2.42
2018-03-20T12:22:12.986Z,1.93
2018-03-20T12:24:40.504Z,0.90
2018-03-20T12:27:09.532Z,2.37
2018-03-20T12:29:37.060Z,2.58
2018-03-20T12:32:04.580Z,3.00
2018-03-20T12:34:33.128Z,3.63
2018-03-20T12:37:00.649Z,1.90
2018-03-20T12:39:28.967Z,1.97
2018-03-20T12:41:56.486Z,3.20
2018-03-20T12:44:24.798Z,2.07
2018-03-20T12:46:56.480Z,2.95
2018-03-20T12:49:24.114Z,2.85
2018-03-20T12:51:52.395Z,1.75
2018-03-20T12:54:20.312Z,1.55
2018-03-20T12:56:48.463Z,3.45
2018-03-20T12:59:15.970Z,3.33
2018-03-20T13:01:44.863Z,2.72
2018-03-20T13:04:19.516Z,3.15
2018-03-20T13:06:47.073Z,2.35
2018-03-20T13:09:14.595Z,3.30
2018-03-20T13:11:42.896Z,3.83
2018-03-20T13:14:10.424Z,2.80
2018-03-20T13:16:38.504Z,2.22
2018-03-20T13:19:06.034Z,1.12
2018-03-20T13:21:33.551Z,2.92
2018-03-20T13:24:01.146Z,2.58
2018-03-20T13:26:29.358Z,1.25
2018-03-20T13:28:57.647Z,1.70
2018-03-20T13:31:25.948Z,3.28
2018-03-20T13:33:53.485Z,2.95
2018-03-20T13:36:26.063Z,1.87
2018-03-20T13:38:53.647Z,2.22
2018-03-20T13:41:21.180Z,2.20
2018-03-20T13:43:49.455Z,2.35
2018-03-20T13:46:18.475Z,2.28
2018-03-20T13:48:45.980Z,1.58
2018-03-20T13:51:13.505Z,1.67
2018-03-20T13:53:41.039Z,2.12
2018-03-20T13:56:17.432Z,2.28
2018-03-20T13:58:45.295Z,2.12
2018-03-20T14:01:12.792Z,1.90
2018-03-20T14:03:40.317Z,2.03
2018-03-20T14:06:12.251Z,1.90
2018-03-20T14:08:39.960Z,3.28
2018-03-20T14:11:08.068Z,2.10
2018-03-20T14:13:36.510Z,3.08
2018-03-20T14:16:04.058Z,4.43
2018-03-20T14:18:31.593Z,2.17
2018-03-20T14:20:59.186Z,1.87
2018-03-20T14:23:26.757Z,3.03
2018-03-20T14:25:58.854Z,2.67
2018-03-20T14:28:26.983Z,3.07
2018-03-20T14:30:54.548Z,2.93
2018-03-20T14:33:25.964Z,1.77
2018-03-20T14:35:53.591Z,3.73
2018-03-20T14:38:21.895Z,3.10
2018-03-20T14:40:50.195Z,3.33
2018-03-20T14:43:17.729Z,1.90
2018-03-20T14:45:46.849Z,3.10
2018-03-20T14:48:18.723Z,2.47
2018-03-20T14:50:48.010Z,2.37
2018-03-20T14:53:15.551Z,2.75
2018-03-20T14:55:43.657Z,2.20
2018-03-20T14:58:11.222Z,2.45
2018-03-20T15:00:38.745Z,4.18
2018-03-20T15:03:06.264Z,2.50
2018-03-20T15:05:33.785Z,2.33
2018-03-20T15:08:01.306Z,5.77
2018-03-20T15:10:29.660Z,3.47
2018-03-20T15:12:57.188Z,4.27
2018-03-20T15:15:24.866Z,2.53
2018-03-20T15:17:52.425Z,3.40
2018-03-20T15:20:20.085Z,1.10
2018-03-20T15:22:48.914Z,1.77
2018-03-20T15:25:17.205Z,3.12
2018-03-20T15:27:45.505Z,1.80
2018-03-20T15:30:13.584Z,3.10
2018-03-20T15:32:41.113Z,1.92
2018-03-20T15:35:09.421Z,1.50
2018-03-20T15:37:36.934Z,2.27
2018-03-20T15:40:08.282Z,3.90
2018-03-20T15:42:35.886Z,1.73
2018-03-20T15:45:03.898Z,3.50
2018-03-20T15:47:31.424Z,1.83
2018-03-20T15:49:59.703Z,3.10
2018-03-20T15:52:27.219Z,2.80
2018-03-20T15:54:55.517Z,2.23
2018-03-20T15:57:23.044Z,2.73
2018-03-20T15:59:50.561Z,2.73
2018-03-20T16:02:18.127Z,2.53
2018-03-20T16:04:50.047Z,1.67
2018-03-20T16:07:18.350Z,2.00
2018-03-20T16:09:46.490Z,2.70
2018-03-20T16:12:14.805Z,3.57
2018-03-20T16:14:42.858Z,3.03
2018-03-20T16:17:10.414Z,2.23
2018-03-20T16:19:37.966Z,1.83
2018-03-20T16:22:06.367Z,3.67
2018-03-20T16:24:37.825Z,2.27
2018-03-20T16:27:05.458Z,1.80
2018-03-20T16:29:33.064Z,3.70
2018-03-20T16:32:04.690Z,2.53
2018-03-20T16:34:32.225Z,3.00
2018-03-20T16:37:01.054Z,1.67
2018-03-20T16:39:28.573Z,1.47
2018-03-20T16:41:57.557Z,2.00
2018-03-20T16:44:25.327Z,2.10
2018-03-20T16:46:53.392Z,2.27
2018-03-20T16:49:20.914Z,2.00
2018-03-20T16:51:48.423Z,2.90
2018-03-20T16:54:16.735Z,1.90
2018-03-20T16:56:44.267Z,3.47
2018-03-20T16:59:13.144Z,3.40
2018-03-20T17:01:42.132Z,4.20
2018-03-20T17:04:10.589Z,2.43
2018-03-20T17:06:38.100Z,2.07
2018-03-20T17:09:06.369Z,4.07
2018-03-20T17:11:34.657Z,2.90
2018-03-20T17:14:02.200Z,3.50
2018-03-20T17:16:30.824Z,2.50
2018-03-20T17:18:58.340Z,2.67
2018-03-20T17:21:26.664Z,3.90
2018-03-20T17:23:58.825Z,3.03
2018-03-20T17:26:26.344Z,5.90
2018-03-20T17:29:02.753Z,6.00
2018-03-20T17:31:30.270Z,4.57
2018-03-20T17:34:02.918Z,5.37
2018-03-20T17:36:30.426Z,3.93
2018-03-20T17:38:59.077Z,4.47
2018-03-20T17:41:28.430Z,3.40
2018-03-20T17:43:56.102Z,4.13
2018-03-20T17:46:23.617Z,3.03
2018-03-20T17:48:54.947Z,6.20
2018-03-20T17:51:22.470Z,1.60
2018-03-20T17:53:50.320Z,3.03
2018-03-20T17:56:17.851Z,3.17
2018-03-20T17:58:45.486Z,2.57
2018-03-20T18:01:13.129Z,2.33
2018-03-20T18:03:40.683Z,3.47
2018-03-20T18:06:08.280Z,2.60
2018-03-20T18:08:36.613Z,3.63
2018-03-20T18:11:04.123Z,1.90
2018-03-20T18:13:35.727Z,2.57
2018-03-20T18:16:03.238Z,3.33
2018-03-20T18:18:31.454Z,3.67
2018-03-20T18:20:58.918Z,2.87
2018-03-20T18:23:26.449Z,4.03
2018-03-20T18:25:54.724Z,6.33
2018-03-20T18:28:23.515Z,5.90
2018-03-20T18:30:51.800Z,4.57
2018-03-20T18:33:23.230Z,6.60
2018-03-20T18:35:54.831Z,8.87
2018-03-20T18:38:22.350Z,9.37
2018-03-20T18:40:51.022Z,8.87
2018-03-20T18:43:18.994Z,7.63
2018-03-20T18:45:46.515Z,6.73
2018-03-20T18:48:14.038Z,8.23
2018-03-20T18:50:43.110Z,7.00
2018-03-20T18:53:11.098Z,7.67
2018-03-20T18:55:39.402Z,10.80
2018-03-20T18:58:06.939Z,11.53
2018-03-20T19:00:35.753Z,10.77
2018-03-20T19:03:03.575Z,8.33
2018-03-20T19:05:31.091Z,6.37
2018-03-20T19:08:02.782Z,5.90
2018-03-20T19:10:30.316Z,11.30
2018-03-20T19:12:57.824Z,5.67
2018-03-20T19:15:25.363Z,3.33
2018-03-20T19:17:53.368Z,2.43
2018-03-20T19:20:25.057Z,5.37
2018-03-20T19:22:56.998Z,3.83
2018-03-20T19:25:24.526Z,4.00
2018-03-20T19:27:52.940Z,4.23
2018-03-20T19:30:20.575Z,3.43
2018-03-20T19:32:48.185Z,3.17
2018-03-20T19:35:15.716Z,3.33
2018-03-20T19:37:47.390Z,6.47
2018-03-20T19:40:14.937Z,2.83
2018-03-20T19:42:42.492Z,3.43
2018-03-20T19:45:11.054Z,3.60
2018-03-20T19:47:39.335Z,3.77
2018-03-20T19:50:08.913Z,4.13
2018-03-20T19:52:36.431Z,4.80
2018-03-20T19:55:04.968Z,3.83
2018-03-20T19:57:33.238Z,4.67
2018-03-20T20:00:00.778Z,3.27
2018-03-20T20:02:28.596Z,6.03
2018-03-20T20:04:56.688Z,4.87
2018-03-20T20:07:24.215Z,7.30
2018-03-20T20:09:55.809Z,4.93
2018-03-20T20:12:23.341Z,5.30
2018-03-20T20:14:54.769Z,5.67
2018-03-20T20:17:23.054Z,4.20
2018-03-20T20:19:50.614Z,3.87
2018-03-20T20:22:19.003Z,3.53
2018-03-20T20:24:47.277Z,4.17
2018-03-20T20:27:16.080Z,5.93
2018-03-20T20:29:43.616Z,3.43
2018-03-20T20:32:11.903Z,4.47
2018-03-20T20:34:40.285Z,6.17
2018-03-20T20:37:07.790Z,5.17
2018-03-20T20:39:35.320Z,5.83
2018-03-20T20:42:02.845Z,5.30
2018-03-20T20:57:30.418Z,4.47
2018-03-20T20:59:57.991Z,5.20
2018-03-20T21:02:25.525Z,4.90
2018-03-20T21:04:53.823Z,3.97
2018-03-20T21:07:21.380Z,6.20
2018-03-20T21:09:49.679Z,3.63
2018-03-20T21:12:17.206Z,4.57
2018-03-20T21:14:45.608Z,5.07
2018-03-20T21:17:13.126Z,4.17
2018-03-20T21:19:41.440Z,4.30
2018-03-20T21:22:08.937Z,3.43
2018-03-20T21:24:36.462Z,4.40
2018-03-20T21:27:04.874Z,3.70
2018-03-20T21:29:32.423Z,6.67
2018-03-20T21:31:59.921Z,4.37
2018-03-20T21:34:28.199Z,4.57
2018-03-20T21:36:56.476Z,4.47
2018-03-20T21:39:24.764Z,4.77
2018-03-20T21:41:56.846Z,3.73
2018-03-20T21:44:24.368Z,4.30
2018-03-20T21:46:52.715Z,4.87
2018-03-20T21:49:20.222Z,4.17
2018-03-20T21:51:48.549Z,3.37
2018-03-20T21:54:16.086Z,3.73
2018-03-20T21:56:43.616Z,4.77
2018-03-20T21:59:12.143Z,3.20
2018-03-20T22:01:40.925Z,7.47
2018-03-20T22:04:08.442Z,5.07
2018-03-20T22:06:36.715Z,6.97
2018-03-20T22:09:04.270Z,6.27
2018-03-20T22:11:32.224Z,8.20
2018-03-20T22:13:59.789Z,7.07
2018-03-20T22:16:27.329Z,6.63
2018-03-20T22:18:55.176Z,6.13
2018-03-20T22:21:22.717Z,4.70
2018-03-20T22:23:50.227Z,5.90
2018-03-20T22:26:17.758Z,5.10
2018-03-20T22:28:46.339Z,6.30
2018-03-20T22:31:13.892Z,6.80
2018-03-20T22:33:41.447Z,5.60
2018-03-20T22:49:13.993Z,6.10
2018-03-20T22:51:42.281Z,6.90
2018-03-20T22:54:09.812Z,5.10
2018-03-20T22:56:41.289Z,5.20
2018-03-20T22:59:08.817Z,7.53
2018-03-20T23:01:40.277Z,6.27
2018-03-20T23:04:07.794Z,6.90
2018-03-20T23:06:35.649Z,7.37
2018-03-20T23:09:03.166Z,5.73
2018-03-20T23:11:31.896Z,6.87
2018-03-20T23:13:59.388Z,5.03
2018-03-20T23:16:26.918Z,5.33
2018-03-20T23:18:54.432Z,6.43
2018-03-20T23:21:22.718Z,4.50
2018-03-20T23:23:51.003Z,7.40
2018-03-20T23:26:18.581Z,3.97
2018-03-20T23:28:46.204Z,5.30
2018-03-20T23:31:13.724Z,5.27
2018-03-20T23:33:41.831Z,6.23
2018-03-20T23:36:09.352Z,5.50
2018-03-20T23:38:36.868Z,7.47
2018-03-20T23:41:05.171Z,5.17
2018-03-20T23:43:32.677Z,4.97
2018-03-20T23:46:00.234Z,6.77
2018-03-20T23:48:27.770Z,4.83
2018-03-20T23:50:55.372Z,10.70
2018-03-20T23:53:22.896Z,8.70
2018-03-20T23:55:50.421Z,7.67
2018-03-20T23:58:17.931Z,5.37
